sensor_id;sensor_type;location;lat;lon;timestamp;pressure;altitude;pressure_sealevel;temperature;humidity
52927;BME280;40783;49.710;8.842;2023-05-12T00:01:14;98821.63;;;12.49;100.00
52927;BME280;40783;49.710;8.842;2023-05-12T00:03:39;98822.94;;;12.53;100.00
52927;BME280;40783;49.710;8.842;2023-05-12T00:06:05;98817.66;;;12.60;100.00
52927;BME280;40783;49.710;8.842;2023-05-12T00:08:30;98818.16;;;12.64;100.00
52927;BME280;40783;49.710;8.842;2023-05-12T00:10:58;98816.13;;;12.66;100.00
52927;BME280;40783;49.710;8.842;2023-05-12T00:13:23;98817.44;;;12.70;100.00
52927;BME280;40783;49.710;8.842;2023-05-12T00:15:51;98818.63;;;12.67;100.00
52927;BME280;40783;49.710;8.842;2023-05-12T00:18:16;98823.88;;;12.60;100.00
52927;BME280;40783;49.710;8.842;2023-05-12T00:20:42;98821.25;;;12.52;100.00
52927;BME280;40783;49.710;8.842;2023-05-12T00:23:07;98812.19;;;12.53;100.00
52927;BME280;40783;49.710;8.842;2023-05-12T00:25:35;98812.56;;;12.50;100.00
52927;BME280;40783;49.710;8.842;2023-05-12T00:28:00;98814.22;;;12.51;100.00
52927;BME280;40783;49.710;8.842;2023-05-12T00:30:25;98811.06;;;12.47;100.00
52927;BME280;40783;49.710;8.842;2023-05-12T00:32:53;98818.63;;;12.44;100.00
52927;BME280;40783;49.710;8.842;2023-05-12T00:35:18;98804.88;;;12.47;100.00
52927;BME280;40783;49.710;8.842;2023-05-12T00:37:48;98814.22;;;12.51;100.00
52927;BME280;40783;49.710;8.842;2023-05-12T00:40:13;98809.28;;;12.40;100.00
52927;BME280;40783;49.710;8.842;2023-05-12T00:42:40;98806.19;;;12.51;100.00
52927;BME280;40783;49.710;8.842;2023-05-12T00:45:06;98805.81;;;12.54;100.00
52927;BME280;40783;49.710;8.842;2023-05-12T00:47:31;98797.06;;;12.60;100.00
52927;BME280;40783;49.710;8.842;2023-05-12T00:49:57;98804.31;;;12.52;100.00
52927;BME280;40783;49.710;8.842;2023-05-12T00:52:26;98803.75;;;12.41;100.00
52927;BME280;40783;49.710;8.842;2023-05-12T00:54:52;98809.28;;;12.40;100.00
52927;BME280;40783;49.710;8.842;2023-05-12T00:57:17;98799.56;;;12.39;100.00
52927;BME280;40783;49.710;8.842;2023-05-12T00:59:43;98802.53;;;12.44;100.00
52927;BME280;40783;49.710;8.842;2023-05-12T01:02:08;98798.84;;;12.45;100.00
52927;BME280;40783;49.710;8.842;2023-05-12T01:04:36;98804.22;;;12.45;100.00
52927;BME280;40783;49.710;8.842;2023-05-12T01:07:03;98804.56;;;12.42;100.00
52927;BME280;40783;49.710;8.842;2023-05-12T01:09:31;98800.56;;;12.38;100.00
52927;BME280;40783;49.710;8.842;2023-05-12T01:11:56;98801.22;;;12.40;100.00
52927;BME280;40783;49.710;8.842;2023-05-12T01:14:21;98797.53;;;12.41;100.00
52927;BME280;40783;49.710;8.842;2023-05-12T01:16:50;98789.53;;;12.32;100.00
52927;BME280;40783;49.710;8.842;2023-05-12T01:21:59;98796.63;;;12.25;100.00
52927;BME280;40783;49.710;8.842;2023-05-12T01:24:28;98793.59;;;12.28;100.00
52927;BME280;40783;49.710;8.842;2023-05-12T01:26:54;98800.56;;;12.38;100.00
52927;BME280;40783;49.710;8.842;2023-05-12T01:29:22;98791.72;;;12.37;100.00
52927;BME280;40783;49.710;8.842;2023-05-12T01:31:48;98793.03;;;12.41;100.00
52927;BME280;40783;49.710;8.842;2023-05-12T01:34:16;98796.81;;;12.47;100.00
52927;BME280;40783;49.710;8.842;2023-05-12T01:36:42;98798.84;;;12.45;100.00
52927;BME280;40783;49.710;8.842;2023-05-12T01:39:07;98798.50;;;12.48;100.00
52927;BME280;40783;49.710;8.842;2023-05-12T01:41:35;98797.66;;;12.47;100.00
52927;BME280;40783;49.710;8.842;2023-05-12T01:44:00;98802.19;;;12.47;100.00
52927;BME280;40783;49.710;8.842;2023-05-12T01:46:25;98804.94;;;12.39;100.00
52927;BME280;40783;49.710;8.842;2023-05-12T01:48:50;98797.25;;;12.36;100.00
52927;BME280;40783;49.710;8.842;2023-05-12T01:51:16;98800.94;;;12.35;100.00
52927;BME280;40783;49.710;8.842;2023-05-12T01:53:41;98803.97;;;12.31;100.00
52927;BME280;40783;49.710;8.842;2023-05-12T01:56:06;98803.44;;;12.36;100.00
52927;BME280;40783;49.710;8.842;2023-05-12T01:58:31;98809.28;;;12.40;100.00
52927;BME280;40783;49.710;8.842;2023-05-12T02:00:57;98810.78;;;12.42;100.00
52927;BME280;40783;49.710;8.842;2023-05-12T02:03:22;98804.56;;;12.42;100.00
52927;BME280;40783;49.710;8.842;2023-05-12T02:05:49;98804.56;;;12.42;100.00
52927;BME280;40783;49.710;8.842;2023-05-12T02:08:15;98806.25;;;12.43;100.00
52927;BME280;40783;49.710;8.842;2023-05-12T02:10:40;98807.72;;;12.45;100.00
52927;BME280;40783;49.710;8.842;2023-05-12T02:13:05;98808.75;;;12.44;100.00
52927;BME280;40783;49.710;8.842;2023-05-12T02:15:31;98806.59;;;12.40;100.00
52927;BME280;40783;49.710;8.842;2023-05-12T02:17:58;98810.28;;;12.39;100.00
52927;BME280;40783;49.710;8.842;2023-05-12T02:20:26;98809.31;;;12.31;100.00
52927;BME280;40783;49.710;8.842;2023-05-12T02:22:53;98807.66;;;12.30;100.00
52927;BME280;40783;49.710;8.842;2023-05-12T02:25:20;98811.34;;;12.29;100.00
52927;BME280;40783;49.710;8.842;2023-05-12T02:27:49;98808.66;;;12.29;100.00
52927;BME280;40783;49.710;8.842;2023-05-12T02:30:14;98809.97;;;12.34;100.00
52927;BME280;40783;49.710;8.842;2023-05-12T02:32:39;98813.31;;;12.36;100.00
52927;BME280;40783;49.710;8.842;2023-05-12T02:35:07;98811.50;;;12.36;100.00
52927;BME280;40783;49.710;8.842;2023-05-12T02:37:34;98815.28;;;12.42;100.00
52927;BME280;40783;49.710;8.842;2023-05-12T02:40:02;98813.97;;;12.38;100.00
52927;BME280;40783;49.710;8.842;2023-05-12T02:42:29;98808.97;;;12.35;100.00
52927;BME280;40783;49.710;8.842;2023-05-12T02:44:59;98810.66;;;12.36;100.00
52927;BME280;40783;49.710;8.842;2023-05-12T02:47:24;98810.69;;;12.27;100.00
52927;BME280;40783;49.710;8.842;2023-05-12T02:49:49;98812.31;;;12.37;100.00
52927;BME280;40783;49.710;8.842;2023-05-12T02:52:14;98814.34;;;12.35;100.00
52927;BME280;40783;49.710;8.842;2023-05-12T02:54:40;98805.63;;;12.32;100.00
52927;BME280;40783;49.710;8.842;2023-05-12T02:57:05;98809.56;;;12.22;100.00
52927;BME280;40783;49.710;8.842;2023-05-12T02:59:30;98808.84;;;12.05;100.00
52927;BME280;40783;49.710;8.842;2023-05-12T03:01:56;98808.84;;;11.96;100.00
52927;BME280;40783;49.710;8.842;2023-05-12T03:04:21;98813.53;;;11.94;100.00
52927;BME280;40783;49.710;8.842;2023-05-12T03:06:46;98809.50;;;11.98;100.00
52927;BME280;40783;49.710;8.842;2023-05-12T03:09:11;98808.50;;;12.08;100.00
52927;BME280;40783;49.710;8.842;2023-05-12T03:11:37;98814.81;;;12.15;100.00
52927;BME280;40783;49.710;8.842;2023-05-12T03:14:02;98800.69;;;12.21;100.00
52927;BME280;40783;49.710;8.842;2023-05-12T03:16:27;98800.31;;;12.24;100.00
52927;BME280;40783;49.710;8.842;2023-05-12T03:18:52;98804.81;;;12.32;100.00
52927;BME280;40783;49.710;8.842;2023-05-12T03:21:18;98813.31;;;12.36;100.00
52927;BME280;40783;49.710;8.842;2023-05-12T03:23:43;98804.94;;;12.39;100.00
52927;BME280;40783;49.710;8.842;2023-05-12T03:26:10;98811.50;;;12.36;100.00
52927;BME280;40783;49.710;8.842;2023-05-12T03:28:38;98805.78;;;12.39;100.00
52927;BME280;40783;49.710;8.842;2023-05-12T03:31:03;98806.00;;;12.29;100.00
52927;BME280;40783;49.710;8.842;2023-05-12T03:33:31;98804.31;;;12.28;100.00
52927;BME280;40783;49.710;8.842;2023-05-12T03:35:56;98809.56;;;12.22;100.00
52927;BME280;40783;49.710;8.842;2023-05-12T03:38:21;98802.06;;;12.17;100.00
52927;BME280;40783;49.710;8.842;2023-05-12T03:40:51;98810.16;;;12.09;100.00
52927;BME280;40783;49.710;8.842;2023-05-12T03:43:26;98807.53;;;12.00;100.00
52927;BME280;40783;49.710;8.842;2023-05-12T03:45:52;98815.88;;;12.06;100.00
52927;BME280;40783;49.710;8.842;2023-05-12T03:48:19;98815.53;;;12.09;100.00
52927;BME280;40783;49.710;8.842;2023-05-12T03:50:44;98809.97;;;12.10;100.00
52927;BME280;40783;49.710;8.842;2023-05-12T03:53:12;98798.44;;;12.10;100.00
52927;BME280;40783;49.710;8.842;2023-05-12T03:55:37;98805.38;;;12.19;100.00
52927;BME280;40783;49.710;8.842;2023-05-12T03:58:05;98804.22;;;12.22;100.00
52927;BME280;40783;49.710;8.842;2023-05-12T04:00:30;98792.53;;;12.14;100.00
52927;BME280;40783;49.710;8.842;2023-05-12T04:02:58;98800.03;;;12.19;100.00
52927;BME280;40783;49.710;8.842;2023-05-12T04:05:27;98798.22;;;12.11;100.00
52927;BME280;40783;49.710;8.842;2023-05-12T04:07:54;98810.16;;;12.09;100.00
52927;BME280;40783;49.710;8.842;2023-05-12T04:10:20;98808.50;;;12.08;100.00
52927;BME280;40783;49.710;8.842;2023-05-12T04:12:45;98810.16;;;12.09;100.00
52927;BME280;40783;49.710;8.842;2023-05-12T04:15:10;98808.06;;;12.19;100.00
52927;BME280;40783;49.710;8.842;2023-05-12T04:17:35;98808.22;;;12.26;100.00
52927;BME280;40783;49.710;8.842;2023-05-12T04:20:00;98807.66;;;12.30;100.00
52927;BME280;40783;49.710;8.842;2023-05-12T04:22:28;98812.41;;;12.20;100.00
52927;BME280;40783;49.710;8.842;2023-05-12T04:24:54;98816.66;;;12.14;100.00
52927;BME280;40783;49.710;8.842;2023-05-12T04:27:22;98820.88;;;12.09;100.00
52927;BME280;40783;49.710;8.842;2023-05-12T04:29:47;98827.41;;;12.06;100.00
52927;BME280;40783;49.710;8.842;2023-05-12T04:32:12;98825.28;;;12.01;100.00
52927;BME280;40783;49.710;8.842;2023-05-12T04:34:40;98825.28;;;12.01;100.00
52927;BME280;40783;49.710;8.842;2023-05-12T04:37:05;98825.47;;;11.92;100.00
52927;BME280;40783;49.710;8.842;2023-05-12T04:39:30;98825.63;;;11.90;100.00
52927;BME280;40783;49.710;8.842;2023-05-12T04:41:56;98825.31;;;11.85;100.00
52927;BME280;40783;49.710;8.842;2023-05-12T04:44:21;98831.00;;;11.82;100.00
52927;BME280;40783;49.710;8.842;2023-05-12T04:46:49;98827.31;;;11.83;100.00
52927;BME280;40783;49.710;8.842;2023-05-12T04:49:17;98837.06;;;11.76;100.00
52927;BME280;40783;49.710;8.842;2023-05-12T04:51:42;98845.75;;;11.78;100.00
52927;BME280;40783;49.710;8.842;2023-05-12T04:54:10;98831.00;;;11.82;100.00
52927;BME280;40783;49.710;8.842;2023-05-12T04:56:35;98841.91;;;11.80;100.00
52927;BME280;40783;49.710;8.842;2023-05-12T04:59:00;98825.31;;;11.85;100.00
52927;BME280;40783;49.710;8.842;2023-05-12T05:01:25;98826.97;;;11.86;100.00
52927;BME280;40783;49.710;8.842;2023-05-12T05:03:51;98834.34;;;11.84;100.00
52927;BME280;40783;49.710;8.842;2023-05-12T05:06:16;98834.84;;;11.87;100.00
52927;BME280;40783;49.710;8.842;2023-05-12T05:08:41;98835.88;;;11.86;100.00
52927;BME280;40783;49.710;8.842;2023-05-12T05:11:06;98844.50;;;11.97;100.00
52927;BME280;40783;49.710;8.842;2023-05-12T05:13:32;98841.34;;;12.01;100.00
52927;BME280;40783;49.710;8.842;2023-05-12T05:15:57;98846.84;;;12.08;100.00
52927;BME280;40783;49.710;8.842;2023-05-12T05:18:22;98849.84;;;12.05;100.00
52927;BME280;40783;49.710;8.842;2023-05-12T05:20:47;98849.69;;;12.07;100.00
52927;BME280;40783;49.710;8.842;2023-05-12T05:23:13;98857.75;;;11.98;100.00
52927;BME280;40783;49.710;8.842;2023-05-12T05:25:40;98849.38;;;12.01;100.00
52927;BME280;40783;49.710;8.842;2023-05-12T05:28:05;98852.06;;;12.01;100.00
52927;BME280;40783;49.710;8.842;2023-05-12T05:30:30;98861.44;;;11.97;100.00
52927;BME280;40783;49.710;8.842;2023-05-12T05:32:56;98867.50;;;11.99;100.00
52927;BME280;40783;49.710;8.842;2023-05-12T05:35:23;98864.47;;;12.02;100.00
52927;BME280;40783;49.710;8.842;2023-05-12T05:37:51;98862.91;;;12.08;100.00
52927;BME280;40783;49.710;8.842;2023-05-12T05:40:17;98869.13;;;12.09;100.00
52927;BME280;40783;49.710;8.842;2023-05-12T05:42:43;98866.09;;;12.12;100.00
52927;BME280;40783;49.710;8.842;2023-05-12T05:45:08;98874.13;;;12.12;100.00
52927;BME280;40783;49.710;8.842;2023-05-12T05:47:36;98879.50;;;12.12;100.00
52927;BME280;40783;49.710;8.842;2023-05-12T05:50:03;98873.78;;;12.15;100.00
52927;BME280;40783;49.710;8.842;2023-05-12T05:52:31;98866.75;;;12.14;100.00
52927;BME280;40783;49.710;8.842;2023-05-12T05:54:59;98869.09;;;12.17;100.00
52927;BME280;40783;49.710;8.842;2023-05-12T05:57:24;98869.25;;;12.15;100.00
52927;BME280;40783;49.710;8.842;2023-05-12T05:59:51;98872.13;;;12.14;100.00
52927;BME280;40783;49.710;8.842;2023-05-12T06:02:17;98874.84;;;12.06;100.00
52927;BME280;40783;49.710;8.842;2023-05-12T06:04:42;98882.59;;;11.84;100.00
52927;BME280;40783;49.710;8.842;2023-05-12T06:07:07;98880.09;;;11.82;100.00
52927;BME280;40783;49.710;8.842;2023-05-12T06:09:32;98880.22;;;11.89;100.00
52927;BME280;40783;49.710;8.842;2023-05-12T06:11:57;98896.63;;;11.94;100.00
52927;BME280;40783;49.710;8.842;2023-05-12T06:14:23;98886.94;;;11.85;100.00
52927;BME280;40783;49.710;8.842;2023-05-12T06:16:48;98896.28;;;11.89;100.00
52927;BME280;40783;49.710;8.842;2023-05-12T06:19:13;98893.66;;;11.81;100.00
52927;BME280;40783;49.710;8.842;2023-05-12T06:21:39;98891.63;;;11.83;100.00
52927;BME280;40783;49.710;8.842;2023-05-12T06:24:04;98895.94;;;11.92;100.00
52927;BME280;40783;49.710;8.842;2023-05-12T06:26:30;98901.31;;;11.92;100.00
52927;BME280;40783;49.710;8.842;2023-05-12T06:28:55;98895.75;;;11.94;100.00
52927;BME280;40783;49.710;8.842;2023-05-12T06:31:20;98896.28;;;12.06;100.00
52927;BME280;40783;49.710;8.842;2023-05-12T06:33:45;98900.97;;;11.95;100.00
52927;BME280;40783;49.710;8.842;2023-05-12T06:36:13;98895.41;;;12.05;100.00
52927;BME280;40783;49.710;8.842;2023-05-12T06:38:41;98897.91;;;12.15;100.00
52927;BME280;40783;49.710;8.842;2023-05-12T06:41:06;98899.19;;;12.19;100.00
52927;BME280;40783;49.710;8.842;2023-05-12T06:43:31;98905.09;;;12.14;100.00
52927;BME280;40783;49.710;8.842;2023-05-12T06:45:56;98902.03;;;12.26;100.00
52927;BME280;40783;49.710;8.842;2023-05-12T06:48:21;98906.19;;;12.28;100.00
52927;BME280;40783;49.710;8.842;2023-05-12T06:50:49;98904.19;;;12.30;100.00
52927;BME280;40783;49.710;8.842;2023-05-12T06:53:19;98903.00;;;12.33;100.00
52927;BME280;40783;49.710;8.842;2023-05-12T06:55:44;98909.91;;;12.27;100.00
52927;BME280;40783;49.710;8.842;2023-05-12T06:58:12;98911.06;;;12.33;100.00
52927;BME280;40783;49.710;8.842;2023-05-12T07:00:37;98915.53;;;12.41;100.00
52927;BME280;40783;49.710;8.842;2023-05-12T07:03:02;98911.84;;;12.42;100.00
52927;BME280;40783;49.710;8.842;2023-05-12T07:05:28;98917.81;;;12.52;100.00
52927;BME280;40783;49.710;8.842;2023-05-12T07:07:53;98918.47;;;12.54;100.00
52927;BME280;40783;49.710;8.842;2023-05-12T07:10:21;98915.78;;;12.54;100.00
52927;BME280;40783;49.710;8.842;2023-05-12T07:12:46;98918.44;;;12.63;100.00
52927;BME280;40783;49.710;8.842;2023-05-12T07:15:11;98916.75;;;12.61;100.00
52927;BME280;40783;49.710;8.842;2023-05-12T07:17:39;98909.38;;;12.64;100.00
52927;BME280;40783;49.710;8.842;2023-05-12T07:20:09;98904.59;;;12.74;100.00
52927;BME280;40783;49.710;8.842;2023-05-12T07:22:34;98905.19;;;12.84;100.00
52927;BME280;40783;49.710;8.842;2023-05-12T07:25:03;98905.91;;;12.78;100.00
52927;BME280;40783;49.710;8.842;2023-05-12T07:27:30;98898.50;;;12.80;100.00
52927;BME280;40783;49.710;8.842;2023-05-12T07:29:58;98895.91;;;12.95;100.00
52927;BME280;40783;49.710;8.842;2023-05-12T07:32:26;98906.44;;;12.97;100.00
52927;BME280;40783;49.710;8.842;2023-05-12T07:34:51;98919.56;;;12.91;100.00
52927;BME280;40783;49.710;8.842;2023-05-12T07:37:17;98916.88;;;12.68;100.00
52927;BME280;40783;49.710;8.842;2023-05-12T07:39:42;98921.69;;;12.73;100.00
52927;BME280;40783;49.710;8.842;2023-05-12T07:42:07;98919.00;;;12.73;100.00
52927;BME280;40783;49.710;8.842;2023-05-12T07:44:33;98917.72;;;12.69;100.00
52927;BME280;40783;49.710;8.842;2023-05-12T07:46:58;98918.44;;;12.63;100.00
52927;BME280;40783;49.710;8.842;2023-05-12T07:49:26;98917.34;;;12.72;100.00
52927;BME280;40783;49.710;8.842;2023-05-12T07:51:51;98920.31;;;12.77;100.00
52927;BME280;40783;49.710;8.842;2023-05-12T07:54:16;98918.75;;;12.68;100.00
52927;BME280;40783;49.710;8.842;2023-05-12T07:56:41;98913.44;;;12.83;100.00
52927;BME280;40783;49.710;8.842;2023-05-12T07:59:09;98913.41;;;13.06;100.00
52927;BME280;40783;49.710;8.842;2023-05-12T08:01:35;98917.84;;;12.99;100.00
52927;BME280;40783;49.710;8.842;2023-05-12T08:04:03;98913.53;;;12.89;100.00
52927;BME280;40783;49.710;8.842;2023-05-12T08:06:30;98905.44;;;12.98;100.00
52927;BME280;40783;49.710;8.842;2023-05-12T08:08:55;98916.94;;;13.06;100.00
52927;BME280;40783;49.710;8.842;2023-05-12T08:11:22;98908.78;;;13.00;100.00
52927;BME280;40783;49.710;8.842;2023-05-12T08:13:47;98912.34;;;13.15;100.00
52927;BME280;40783;49.710;8.842;2023-05-12T08:16:12;98904.59;;;13.20;100.00
52927;BME280;40783;49.710;8.842;2023-05-12T08:18:38;98911.97;;;13.18;100.00
52927;BME280;40783;49.710;8.842;2023-05-12T08:21:05;98911.16;;;13.33;100.00
52927;BME280;40783;49.710;8.842;2023-05-12T08:23:30;98915.72;;;13.32;100.00
52927;BME280;40783;49.710;8.842;2023-05-12T08:25:55;98913.72;;;13.49;100.00
52927;BME280;40783;49.710;8.842;2023-05-12T08:28:23;98918.38;;;13.56;100.00
52927;BME280;40783;49.710;8.842;2023-05-12T08:30:48;98901.88;;;13.59;100.00
52927;BME280;40783;49.710;8.842;2023-05-12T08:33:13;98913.28;;;13.46;100.00
52927;BME280;40783;49.710;8.842;2023-05-12T08:35:39;98918.09;;;13.65;100.00
52927;BME280;40783;49.710;8.842;2023-05-12T08:38:04;98919.69;;;13.60;100.00
52927;BME280;40783;49.710;8.842;2023-05-12T08:40:30;98918.09;;;13.80;100.00
52927;BME280;40783;49.710;8.842;2023-05-12T08:43:05;98923.75;;;13.86;100.00
52927;BME280;40783;49.710;8.842;2023-05-12T08:45:31;98922.09;;;13.85;100.00
52927;BME280;40783;49.710;8.842;2023-05-12T08:47:57;98920.91;;;13.72;100.00
52927;BME280;40783;49.710;8.842;2023-05-12T08:50:23;98913.47;;;13.89;100.00
52927;BME280;40783;49.710;8.842;2023-05-12T08:52:51;98919.31;;;13.93;100.00
52927;BME280;40783;49.710;8.842;2023-05-12T08:55:17;98911.34;;;13.85;100.00
52927;BME280;40783;49.710;8.842;2023-05-12T08:57:43;98918.50;;;13.92;100.00
52927;BME280;40783;49.710;8.842;2023-05-12T09:00:12;98934.63;;;13.92;100.00
52927;BME280;40783;49.710;8.842;2023-05-12T09:02:40;98930.06;;;13.93;100.00
52927;BME280;40783;49.710;8.842;2023-05-12T09:05:07;98919.88;;;14.03;100.00
52927;BME280;40783;49.710;8.842;2023-05-12T09:07:35;98922.00;;;13.93;100.00
52927;BME280;40783;49.710;8.842;2023-05-12T09:10:03;98929.59;;;14.04;100.00
52927;BME280;40783;49.710;8.842;2023-05-12T09:12:30;98922.63;;;14.25;100.00
52927;BME280;40783;49.710;8.842;2023-05-12T09:15:06;98917.41;;;14.38;100.00
52927;BME280;40783;49.710;8.842;2023-05-12T09:17:34;98922.78;;;14.38;100.00
52927;BME280;40783;49.710;8.842;2023-05-12T09:20:00;98916.66;;;14.45;100.00
52927;BME280;40783;49.710;8.842;2023-05-12T09:22:26;98919.44;;;14.36;100.00
52927;BME280;40783;49.710;8.842;2023-05-12T09:24:52;98918.06;;;14.25;100.00
52927;BME280;40783;49.710;8.842;2023-05-12T09:27:22;98923.81;;;14.37;100.00
52927;BME280;40783;49.710;8.842;2023-05-12T09:29:47;98919.44;;;14.36;100.00
52927;BME280;40783;49.710;8.842;2023-05-12T09:32:13;98912.78;;;14.32;100.00
52927;BME280;40783;49.710;8.842;2023-05-12T09:34:41;98924.81;;;14.36;100.00
52927;BME280;40783;49.710;8.842;2023-05-12T09:37:07;98923.44;;;14.40;100.00
52927;BME280;40783;49.710;8.842;2023-05-12T09:39:32;98925.19;;;14.33;100.00
52927;BME280;40783;49.710;8.842;2023-05-12T09:42:00;98930.06;;;14.23;100.00
52927;BME280;40783;49.710;8.842;2023-05-12T09:44:30;98921.72;;;14.18;100.00
52927;BME280;40783;49.710;8.842;2023-05-12T09:46:55;98929.31;;;13.99;100.00
52927;BME280;40783;49.710;8.842;2023-05-12T09:49:31;98929.69;;;13.96;100.00
52927;BME280;40783;49.710;8.842;2023-05-12T09:51:59;98930.97;;;14.15;100.00
52927;BME280;40783;49.710;8.842;2023-05-12T09:56:50;98926.50;;;14.37;100.00
52927;BME280;40783;49.710;8.842;2023-05-12T09:59:16;98922.63;;;14.25;100.00
52927;BME280;40783;49.710;8.842;2023-05-12T10:01:42;98922.41;;;14.42;100.00
52927;BME280;40783;49.710;8.842;2023-05-12T10:04:07;98922.94;;;14.52;100.00
52927;BME280;40783;49.710;8.842;2023-05-12T10:06:39;98923.84;;;14.59;100.00
52927;BME280;40783;49.710;8.842;2023-05-12T10:11:31;98920.69;;;14.71;100.00
52927;BME280;40783;49.710;8.842;2023-05-12T10:13:59;98923.41;;;14.71;100.00
52927;BME280;40783;49.710;8.842;2023-05-12T10:16:27;98919.97;;;14.47;100.00
52927;BME280;40783;49.710;8.842;2023-05-12T10:18:53;98926.38;;;14.46;100.00
52927;BME280;40783;49.710;8.842;2023-05-12T10:21:18;98914.06;;;14.36;100.00
52927;BME280;40783;49.710;8.842;2023-05-12T10:23:44;98924.69;;;14.23;100.00
52927;BME280;40783;49.710;8.842;2023-05-12T10:26:10;98924.78;;;14.15;100.00
52927;BME280;40783;49.710;8.842;2023-05-12T10:28:36;98927.66;;;13.98;100.00
52927;BME280;40783;49.710;8.842;2023-05-12T10:31:01;98923.09;;;14.14;100.00
52927;BME280;40783;49.710;8.842;2023-05-12T10:33:28;98918.75;;;14.13;100.00
52927;BME280;40783;49.710;8.842;2023-05-12T10:35:56;98923.00;;;14.22;100.00
52927;BME280;40783;49.710;8.842;2023-05-12T10:38:21;98919.00;;;14.33;100.00
52927;BME280;40783;49.710;8.842;2023-05-12T10:41:00;98928.16;;;14.38;100.00
52927;BME280;40783;49.710;8.842;2023-05-12T10:43:29;98930.38;;;14.50;100.00
52927;BME280;40783;49.710;8.842;2023-05-12T10:48:35;98915.31;;;14.71;100.00
52927;BME280;40783;49.710;8.842;2023-05-12T10:51:10;98924.03;;;14.73;100.00
52927;BME280;40783;49.710;8.842;2023-05-12T10:53:37;98922.38;;;14.72;100.00
52927;BME280;40783;49.710;8.842;2023-05-12T10:56:03;98915.75;;;14.74;100.00
52927;BME280;40783;49.710;8.842;2023-05-12T10:58:31;98918.28;;;14.76;100.00
52927;BME280;40783;49.710;8.842;2023-05-12T11:01:02;98919.97;;;14.47;100.00
52927;BME280;40783;49.710;8.842;2023-05-12T11:03:29;98929.44;;;14.43;100.00
52927;BME280;40783;49.710;8.842;2023-05-12T11:06:00;98928.31;;;14.52;100.00
52927;BME280;40783;49.710;8.842;2023-05-12T11:08:27;98931.47;;;14.56;100.00
52927;BME280;40783;49.710;8.842;2023-05-12T11:10:52;98937.47;;;14.21;100.00
52927;BME280;40783;49.710;8.842;2023-05-12T11:13:18;98930.44;;;14.20;100.00
52927;BME280;40783;49.710;8.842;2023-05-12T11:15:43;98939.16;;;13.92;100.00
52927;BME280;40783;49.710;8.842;2023-05-12T11:18:11;98945.09;;;13.72;100.00
52927;BME280;40783;49.710;8.842;2023-05-12T11:20:39;98940.72;;;13.71;100.00
52927;BME280;40783;49.710;8.842;2023-05-12T11:23:04;98941.53;;;13.57;100.00
52927;BME280;40783;49.710;8.842;2023-05-12T11:25:30;98941.53;;;13.57;100.00
52927;BME280;40783;49.710;8.842;2023-05-12T11:27:56;98944.03;;;13.58;100.00
52927;BME280;40783;49.710;8.842;2023-05-12T11:30:21;98955.25;;;13.62;100.00
52927;BME280;40783;49.710;8.842;2023-05-12T11:32:46;98952.50;;;13.70;100.00
52927;BME280;40783;49.710;8.842;2023-05-12T11:35:12;98948.44;;;13.74;100.00
52927;BME280;40783;49.710;8.842;2023-05-12T11:37:38;98951.75;;;13.76;100.00
52927;BME280;40783;49.710;8.842;2023-05-12T11:40:13;98952.31;;;13.87;100.00
52927;BME280;40783;49.710;8.842;2023-05-12T11:42:38;98944.81;;;13.97;100.00
52927;BME280;40783;49.710;8.842;2023-05-12T11:45:28;98947.97;;;14.16;100.00
52927;BME280;40783;49.710;8.842;2023-05-12T11:48:10;98940.53;;;14.18;100.00
52927;BME280;40783;49.710;8.842;2023-05-12T11:50:39;98944.41;;;14.45;100.00
52927;BME280;40783;49.710;8.842;2023-05-12T11:53:08;98938.31;;;14.58;100.00
52927;BME280;40783;49.710;8.842;2023-05-12T11:55:33;98934.19;;;14.56;100.00
52927;BME280;40783;49.710;8.842;2023-05-12T11:58:01;98949.47;;;14.55;100.00
52927;BME280;40783;49.710;8.842;2023-05-12T12:00:27;98946.88;;;14.47;100.00
52927;BME280;40783;49.710;8.842;2023-05-12T12:03:06;98949.16;;;14.28;100.00
52927;BME280;40783;49.710;8.842;2023-05-12T12:05:31;98961.28;;;14.09;100.00
52927;BME280;40783;49.710;8.842;2023-05-12T12:08:03;98954.81;;;14.18;100.00
52927;BME280;40783;49.710;8.842;2023-05-12T12:10:29;98959.75;;;14.15;100.00
52927;BME280;40783;49.710;8.842;2023-05-12T12:12:54;98967.72;;;14.23;100.00
52927;BME280;40783;49.710;8.842;2023-05-12T12:15:19;98973.09;;;14.23;100.00
52927;BME280;40783;49.710;8.842;2023-05-12T12:17:44;98968.16;;;14.27;100.00
52927;BME280;40783;49.710;8.842;2023-05-12T12:20:10;98975.66;;;14.31;100.00
52927;BME280;40783;49.710;8.842;2023-05-12T12:22:35;98965.81;;;14.38;100.00
52927;BME280;40783;49.710;8.842;2023-05-12T12:25:01;98975.47;;;14.48;100.00
52927;BME280;40783;49.710;8.842;2023-05-12T12:27:26;98971.75;;;14.49;100.00
52927;BME280;40783;49.710;8.842;2023-05-12T12:29:51;98971.75;;;14.49;100.00
52927;BME280;40783;49.710;8.842;2023-05-12T12:32:16;98969.81;;;14.43;100.00
52927;BME280;40783;49.710;8.842;2023-05-12T12:34:42;98974.53;;;14.40;100.00
52927;BME280;40783;49.710;8.842;2023-05-12T12:37:09;98983.16;;;14.51;100.00
52927;BME280;40783;49.710;8.842;2023-05-12T12:39:34;98967.81;;;14.66;100.00
52927;BME280;40783;49.710;8.842;2023-05-12T12:41:59;98978.94;;;14.78;100.00
52927;BME280;40783;49.710;8.842;2023-05-12T12:44:24;98979.91;;;14.71;100.00
52927;BME280;40783;49.710;8.842;2023-05-12T12:46:53;98980.84;;;14.48;100.00
52927;BME280;40783;49.710;8.842;2023-05-12T12:49:18;98987.72;;;14.35;100.00
52927;BME280;40783;49.710;8.842;2023-05-12T12:51:43;98985.88;;;14.21;100.00
52927;BME280;40783;49.710;8.842;2023-05-12T12:54:08;98993.84;;;13.99;100.00
52927;BME280;40783;49.710;8.842;2023-05-12T12:56:33;98999.31;;;13.91;100.00